createdAt,value
2022-11-06T14:13:58.091Z,96018.59
2022-11-06T14:16:28.629Z,96016.41
2022-11-06T14:19:01.013Z,96021.31
2022-11-06T14:21:43.893Z,96027.16
2022-11-06T14:24:28.551Z,96026.13
2022-11-06T14:26:55.380Z,96018.34
2022-11-06T14:29:28.055Z,95997.09
2022-11-06T14:32:19.844Z,95994.97
2022-11-06T14:34:47.697Z,96001.56
2022-11-06T14:37:30.804Z,96011.94
2022-11-06T14:39:57.741Z,96021.00
2022-11-06T14:42:27.043Z,96016.13
2022-11-06T14:44:58.815Z,96010.63
2022-11-06T14:47:29.591Z,96015.94
2022-11-06T14:49:58.072Z,96008.97
2022-11-06T14:52:25.231Z,96005.66
2022-11-06T14:54:58.381Z,96012.19
2022-11-06T14:57:39.239Z,95995.91
2022-11-06T15:00:06.944Z,95988.22
2022-11-06T15:02:35.746Z,95996.84
2022-11-06T15:05:08.900Z,95986.88
2022-11-06T15:08:07.849Z,95992.69
2022-11-06T15:10:43.661Z,96003.94
2022-11-06T15:13:13.415Z,95987.81
2022-11-06T15:15:42.266Z,95990.47
2022-11-06T15:18:14.903Z,95996.41
2022-11-06T15:20:42.170Z,95988.41
2022-11-06T15:23:14.639Z,95987.28
2022-11-06T15:25:57.912Z,95988.81
2022-11-06T15:28:27.895Z,95982.66
2022-11-06T15:31:04.464Z,95992.22
2022-11-06T15:33:55.373Z,95985.78
2022-11-06T15:36:22.780Z,95987.59
2022-11-06T15:38:49.849Z,95975.94
2022-11-06T15:41:19.954Z,95982.97
2022-11-06T15:43:49.698Z,95992.66
2022-11-06T15:46:23.833Z,96004.19
2022-11-06T15:49:17.803Z,96010.41
2022-11-06T15:52:00.683Z,96008.44
2022-11-06T15:54:36.403Z,96007.47
2022-11-06T15:57:06.472Z,96003.94
2022-11-06T15:59:33.846Z,96011.84
2022-11-06T16:02:04.898Z,96006.63
2022-11-06T16:04:33.386Z,96003.81
2022-11-06T16:07:00.863Z,96004.66
2022-11-06T16:09:28.328Z,96001.84
2022-11-06T16:11:55.298Z,96008.88
2022-11-06T16:14:22.351Z,96008.88
2022-11-06T16:16:51.123Z,96015.94
2022-11-06T16:19:33.996Z,96012.56
2022-11-06T16:22:07.800Z,96009.09
2022-11-06T16:24:40.765Z,96003.94
2022-11-06T16:27:08.224Z,96008.09
2022-11-06T16:29:35.451Z,96002.78
2022-11-06T16:32:15.388Z,96003.63
2022-11-06T16:34:44.369Z,96011.50
2022-11-06T16:37:16.960Z,96008.34
2022-11-06T16:39:49.356Z,96013.38
2022-11-06T16:42:22.153Z,96013.97
2022-11-06T16:44:50.779Z,96026.09
2022-11-06T16:47:18.061Z,96032.16
2022-11-06T16:49:54.083Z,96033.75
2022-11-06T16:52:35.650Z,96031.63
2022-11-06T16:55:22.978Z,96040.34
2022-11-06T16:57:55.962Z,96036.72
2022-11-06T17:00:24.880Z,96040.94
2022-11-06T17:02:52.582Z,96045.31
2022-11-06T17:05:24.502Z,96041.66
2022-11-06T17:08:19.174Z,96041.53
2022-11-06T17:10:46.988Z,96049.41
2022-11-06T17:13:22.521Z,96055.59
2022-11-06T17:15:53.776Z,96052.09
2022-11-06T17:18:23.116Z,96061.78
2022-11-06T17:21:01.087Z,96059.97
2022-11-06T17:23:29.537Z,96056.19
2022-11-06T17:25:59.703Z,96057.91
2022-11-06T17:28:26.924Z,96069.31
2022-11-06T17:30:54.881Z,96067.34
2022-11-06T17:33:21.804Z,96065.63
2022-11-06T17:35:49.277Z,96065.38
2022-11-06T17:38:17.172Z,96068.91
2022-11-06T17:40:44.287Z,96071.56
2022-11-06T17:43:12.104Z,96069.75
2022-11-06T17:45:40.412Z,96063.69
2022-11-06T17:48:06.970Z,96071.56
2022-11-06T17:50:56.275Z,96070.72
2022-11-06T17:53:22.857Z,96071.28
2022-11-06T17:55:50.372Z,96074.97
2022-11-06T17:58:17.245Z,96085.53
2022-11-06T18:00:44.223Z,96090.00
2022-11-06T18:03:19.778Z,96086.59
2022-11-06T18:05:47.068Z,96099.72
2022-11-06T18:08:14.479Z,96099.00
2022-11-06T18:10:41.470Z,96106.91
2022-11-06T18:13:08.406Z,96106.03
2022-11-06T18:15:35.982Z,96107.75
2022-11-06T18:18:03.173Z,96107.88
2022-11-06T18:20:30.068Z,96109.56
2022-11-06T18:22:56.575Z,96112.25
2022-11-06T18:25:23.806Z,96108.97
2022-11-06T18:27:51.420Z,96102.09
2022-11-06T18:30:18.184Z,96111.66
2022-11-06T18:32:46.716Z,96111.34
2022-11-06T18:35:13.375Z,96109.31
2022-11-06T18:44:24.953Z,96100.41
2022-11-06T18:46:51.653Z,96098.59
2022-11-06T18:49:18.237Z,96107.84
2022-11-06T18:51:44.947Z,96108.94
2022-11-06T18:54:12.339Z,96101.06
2022-11-06T18:56:39.059Z,96112.72
2022-11-06T18:59:08.161Z,96114.53
2022-11-06T19:01:35.266Z,96112.72
2022-11-06T19:04:03.655Z,96110.78
2022-11-06T19:06:30.448Z,96110.28
2022-11-06T19:08:57.045Z,96105.41
2022-11-06T19:11:23.609Z,96115.72
2022-11-06T19:13:51.855Z,96115.59
2022-11-06T19:16:19.508Z,96122.09
2022-11-06T19:21:29.425Z,96115.41
2022-11-06T19:24:03.415Z,96122.34
2022-11-06T19:26:33.004Z,96119.50
2022-11-06T19:29:00.147Z,96116.75
2022-11-06T19:31:30.321Z,96125.47
2022-11-06T19:33:58.551Z,96122.81
2022-11-06T19:36:25.676Z,96120.84
2022-11-06T19:38:52.690Z,96122.69
2022-11-06T19:41:19.481Z,96122.56
2022-11-06T19:43:46.036Z,96117.22
2022-11-06T19:46:12.664Z,96124.25
2022-11-06T19:48:41.010Z,96126.09
2022-11-06T19:51:12.640Z,96126.09
2022-11-06T19:53:40.247Z,96127.91
2022-11-06T19:56:08.378Z,96135.81
2022-11-06T19:58:35.613Z,96133.97
2022-11-06T20:01:09.547Z,96142.94
2022-11-06T20:03:36.638Z,96138.47
2022-11-06T20:06:07.836Z,96136.03
2022-11-06T20:08:36.797Z,96134.22
2022-11-06T21:31:10.942Z,96164.19
2022-11-06T21:33:41.904Z,96161.50
2022-11-06T21:36:13.708Z,96166.25
2022-11-06T21:38:41.151Z,96177.03
2022-11-06T21:41:09.932Z,96180.78
2022-11-06T21:43:36.622Z,96195.91
2022-11-06T21:46:08.239Z,96193.59
2022-11-06T21:48:50.566Z,96205.31
2022-11-06T21:51:29.206Z,96214.41
2022-11-06T21:54:14.920Z,96216.81
2022-11-06T21:56:42.224Z,96219.81
2022-11-06T21:59:11.509Z,96234.78
2022-11-06T22:01:38.737Z,96225.66
2022-11-06T22:04:05.730Z,96228.19
2022-11-06T22:06:32.434Z,96227.34
2022-11-06T22:09:00.763Z,96243.13
2022-11-06T22:11:33.139Z,96237.94
2022-11-06T22:14:01.965Z,96246.66
2022-11-06T22:16:31.810Z,96237.78
2022-11-06T22:18:59.174Z,96247.50
2022-11-06T22:21:28.255Z,96248.47
2022-11-06T22:23:55.086Z,96246.78
2022-11-06T22:26:23.931Z,96240.44
2022-11-06T22:29:00.891Z,96236.09
2022-11-06T22:31:29.559Z,96229.03
2022-11-06T22:33:56.709Z,96240.59
2022-11-06T22:36:23.839Z,96247.75
2022-11-06T22:38:50.626Z,96251.28
2022-11-06T22:41:20.664Z,96241.56
2022-11-06T22:43:47.474Z,96235.38
2022-11-06T22:46:20.124Z,96245.19
2022-11-06T22:48:47.092Z,96249.72
2022-11-06T22:51:16.480Z,96251.53
2022-11-06T22:53:43.405Z,96248.03
2022-11-06T22:56:12.402Z,96248.03
2022-11-06T22:58:39.828Z,96243.75
2022-11-06T23:01:06.658Z,96249.00
2022-11-06T23:03:33.390Z,96247.31
2022-11-06T23:06:03.097Z,96245.47
2022-11-06T23:08:30.006Z,96249.13
2022-11-06T23:10:56.747Z,96249.13
2022-11-06T23:13:24.354Z,96245.59
2022-11-06T23:15:51.429Z,96242.91
2022-11-06T23:18:17.992Z,96245.69
2022-11-06T23:20:47.150Z,96242.06
2022-11-06T23:23:14.143Z,96243.88
2022-11-06T23:25:41.376Z,96244.00
2022-11-06T23:28:07.978Z,96244.84
2022-11-06T23:30:34.877Z,96241.34
2022-11-06T23:33:01.485Z,96250.31
2022-11-06T23:35:32.426Z,96254.81
2022-11-06T23:38:00.790Z,96252.16
2022-11-06T23:40:27.964Z,96253.09
2022-11-06T23:42:56.092Z,96255.78
2022-11-06T23:45:41.665Z,96249.59
2022-11-06T23:48:13.308Z,96257.63
2022-11-06T23:50:41.724Z,96246.09
2022-11-06T23:53:08.291Z,96240.84
2022-11-06T23:55:35.099Z,96258.72
2022-11-06T23:58:01.893Z,96255.94
